Terminal Aerodrome Forecast
Issued by NWS

Home | Current Version | Previous Version | Graphics & Text | Print | Product List | Glossary On
Versions: 1 2 3 4 5 6 7 8 9 10 11 12 13 14
000
FTUS43 KABR 220523
TAFPIR
TAF
KPIR 220523Z 2206/2306 VRB05KT P6SM BKN250
     FM221600 21011KT P6SM OVC100
     FM230000 31008KT P6SM SCT250=

USA.gov is the U.S. government's official web portal to all federal, state and local government web resources and services.